sensor_id;sensor_type;location;lat;lon;timestamp;temperature;humidity
18446;DHT22;9352;50.888;4.466;2023-03-29T00:02:23;8.80;99.90
18446;DHT22;9352;50.888;4.466;2023-03-29T00:04:55;8.80;99.90
18446;DHT22;9352;50.888;4.466;2023-03-29T00:07:22;8.80;99.90
18446;DHT22;9352;50.888;4.466;2023-03-29T00:09:50;8.80;99.90
18446;DHT22;9352;50.888;4.466;2023-03-29T00:12:17;8.80;99.90
18446;DHT22;9352;50.888;4.466;2023-03-29T00:14:44;8.80;99.90
18446;DHT22;9352;50.888;4.466;2023-03-29T00:17:12;8.90;99.90
18446;DHT22;9352;50.888;4.466;2023-03-29T00:19:42;8.90;99.90
18446;DHT22;9352;50.888;4.466;2023-03-29T00:22:09;9.00;99.90
18446;DHT22;9352;50.888;4.466;2023-03-29T00:24:36;9.00;99.90
18446;DHT22;9352;50.888;4.466;2023-03-29T00:27:03;9.00;99.90
18446;DHT22;9352;50.888;4.466;2023-03-29T00:29:30;9.00;99.90
18446;DHT22;9352;50.888;4.466;2023-03-29T00:31:57;9.00;99.90
18446;DHT22;9352;50.888;4.466;2023-03-29T00:34:26;9.00;99.90
18446;DHT22;9352;50.888;4.466;2023-03-29T00:36:55;9.00;99.90
18446;DHT22;9352;50.888;4.466;2023-03-29T00:39:23;9.00;99.90
18446;DHT22;9352;50.888;4.466;2023-03-29T00:41:53;9.00;99.90
18446;DHT22;9352;50.888;4.466;2023-03-29T00:45:03;9.10;99.90
18446;DHT22;9352;50.888;4.466;2023-03-29T00:47:36;9.10;99.90
18446;DHT22;9352;50.888;4.466;2023-03-29T00:50:09;9.10;99.90
18446;DHT22;9352;50.888;4.466;2023-03-29T00:52:38;9.20;99.90
18446;DHT22;9352;50.888;4.466;2023-03-29T00:55:10;9.20;99.90
18446;DHT22;9352;50.888;4.466;2023-03-29T00:57:40;9.20;99.90
18446;DHT22;9352;50.888;4.466;2023-03-29T01:00:12;9.20;99.90
18446;DHT22;9352;50.888;4.466;2023-03-29T01:02:44;9.20;99.90
18446;DHT22;9352;50.888;4.466;2023-03-29T01:05:20;9.20;99.90
18446;DHT22;9352;50.888;4.466;2023-03-29T01:07:50;9.30;99.90
18446;DHT22;9352;50.888;4.466;2023-03-29T01:10:26;9.30;99.90
18446;DHT22;9352;50.888;4.466;2023-03-29T01:13:00;9.30;99.90
18446;DHT22;9352;50.888;4.466;2023-03-29T01:15:29;9.30;99.90
18446;DHT22;9352;50.888;4.466;2023-03-29T01:17:56;9.30;99.90
18446;DHT22;9352;50.888;4.466;2023-03-29T01:20:38;9.30;99.90
18446;DHT22;9352;50.888;4.466;2023-03-29T01:23:23;9.30;99.90
18446;DHT22;9352;50.888;4.466;2023-03-29T01:25:56;9.30;99.90
18446;DHT22;9352;50.888;4.466;2023-03-29T01:28:29;9.30;99.90
18446;DHT22;9352;50.888;4.466;2023-03-29T01:31:02;9.30;99.90
18446;DHT22;9352;50.888;4.466;2023-03-29T01:33:37;9.30;99.90
18446;DHT22;9352;50.888;4.466;2023-03-29T01:36:08;9.30;99.90
18446;DHT22;9352;50.888;4.466;2023-03-29T01:38:42;9.30;99.90
18446;DHT22;9352;50.888;4.466;2023-03-29T01:41:12;9.30;99.90
18446;DHT22;9352;50.888;4.466;2023-03-29T01:43:43;9.30;99.90
18446;DHT22;9352;50.888;4.466;2023-03-29T01:46:14;9.30;99.90
18446;DHT22;9352;50.888;4.466;2023-03-29T01:48:47;9.30;99.90
18446;DHT22;9352;50.888;4.466;2023-03-29T01:51:19;9.30;99.90
18446;DHT22;9352;50.888;4.466;2023-03-29T01:53:51;9.30;99.90
18446;DHT22;9352;50.888;4.466;2023-03-29T01:56:22;9.30;99.90
18446;DHT22;9352;50.888;4.466;2023-03-29T01:58:54;9.30;99.90
18446;DHT22;9352;50.888;4.466;2023-03-29T02:01:26;9.30;99.90
18446;DHT22;9352;50.888;4.466;2023-03-29T02:03:58;9.30;99.90
18446;DHT22;9352;50.888;4.466;2023-03-29T02:06:28;9.30;99.90
18446;DHT22;9352;50.888;4.466;2023-03-29T02:08:57;9.30;99.90
18446;DHT22;9352;50.888;4.466;2023-03-29T02:11:25;9.30;99.90
18446;DHT22;9352;50.888;4.466;2023-03-29T02:13:55;9.30;99.90
18446;DHT22;9352;50.888;4.466;2023-03-29T02:16:22;9.30;99.90
18446;DHT22;9352;50.888;4.466;2023-03-29T02:18:50;9.30;99.90
18446;DHT22;9352;50.888;4.466;2023-03-29T02:21:23;9.30;99.90
18446;DHT22;9352;50.888;4.466;2023-03-29T02:23:52;9.30;99.90
18446;DHT22;9352;50.888;4.466;2023-03-29T02:26:21;9.30;99.90
18446;DHT22;9352;50.888;4.466;2023-03-29T02:28:49;9.30;99.90
18446;DHT22;9352;50.888;4.466;2023-03-29T02:31:21;9.30;99.90
18446;DHT22;9352;50.888;4.466;2023-03-29T02:33:55;9.30;99.90
18446;DHT22;9352;50.888;4.466;2023-03-29T02:36:27;9.40;99.90
18446;DHT22;9352;50.888;4.466;2023-03-29T02:38:58;9.40;99.90
18446;DHT22;9352;50.888;4.466;2023-03-29T02:41:26;9.50;99.90
18446;DHT22;9352;50.888;4.466;2023-03-29T02:43:55;9.50;99.90
18446;DHT22;9352;50.888;4.466;2023-03-29T02:46:24;9.50;99.90
18446;DHT22;9352;50.888;4.466;2023-03-29T02:48:53;9.50;99.90
18446;DHT22;9352;50.888;4.466;2023-03-29T02:51:24;9.50;99.90
18446;DHT22;9352;50.888;4.466;2023-03-29T02:53:56;9.60;99.90
18446;DHT22;9352;50.888;4.466;2023-03-29T02:56:24;9.60;99.90
18446;DHT22;9352;50.888;4.466;2023-03-29T02:58:51;9.60;99.90
18446;DHT22;9352;50.888;4.466;2023-03-29T03:01:18;9.70;99.90
18446;DHT22;9352;50.888;4.466;2023-03-29T03:03:48;9.60;99.90
18446;DHT22;9352;50.888;4.466;2023-03-29T03:06:16;9.70;99.90
18446;DHT22;9352;50.888;4.466;2023-03-29T03:08:43;9.70;99.90
18446;DHT22;9352;50.888;4.466;2023-03-29T03:11:10;9.70;99.90
18446;DHT22;9352;50.888;4.466;2023-03-29T03:13:37;9.70;99.90
18446;DHT22;9352;50.888;4.466;2023-03-29T03:16:04;9.70;99.90
18446;DHT22;9352;50.888;4.466;2023-03-29T03:18:32;9.70;99.90
18446;DHT22;9352;50.888;4.466;2023-03-29T03:21:00;9.70;99.90
18446;DHT22;9352;50.888;4.466;2023-03-29T03:23:29;9.70;99.90
18446;DHT22;9352;50.888;4.466;2023-03-29T03:25:56;9.60;99.90
18446;DHT22;9352;50.888;4.466;2023-03-29T03:28:23;9.70;99.90
18446;DHT22;9352;50.888;4.466;2023-03-29T03:30:52;9.60;99.90
18446;DHT22;9352;50.888;4.466;2023-03-29T03:33:19;9.70;99.90
18446;DHT22;9352;50.888;4.466;2023-03-29T03:35:45;9.70;99.90
18446;DHT22;9352;50.888;4.466;2023-03-29T03:38:14;9.70;99.90
18446;DHT22;9352;50.888;4.466;2023-03-29T03:40:41;9.70;99.90
18446;DHT22;9352;50.888;4.466;2023-03-29T03:43:08;9.70;99.90
18446;DHT22;9352;50.888;4.466;2023-03-29T03:45:37;9.70;99.90
18446;DHT22;9352;50.888;4.466;2023-03-29T03:48:04;9.60;99.90
18446;DHT22;9352;50.888;4.466;2023-03-29T03:50:31;9.60;99.90
18446;DHT22;9352;50.888;4.466;2023-03-29T03:52:58;9.60;99.90
18446;DHT22;9352;50.888;4.466;2023-03-29T03:55:26;9.50;99.90
18446;DHT22;9352;50.888;4.466;2023-03-29T03:57:57;9.60;99.90
18446;DHT22;9352;50.888;4.466;2023-03-29T04:00:24;9.50;99.90
18446;DHT22;9352;50.888;4.466;2023-03-29T04:02:52;9.50;99.90
18446;DHT22;9352;50.888;4.466;2023-03-29T04:05:20;9.50;99.90
18446;DHT22;9352;50.888;4.466;2023-03-29T04:07:47;9.50;99.90
18446;DHT22;9352;50.888;4.466;2023-03-29T04:10:14;9.50;99.90
18446;DHT22;9352;50.888;4.466;2023-03-29T04:12:43;9.50;99.90
18446;DHT22;9352;50.888;4.466;2023-03-29T04:15:10;9.50;99.90
18446;DHT22;9352;50.888;4.466;2023-03-29T04:17:37;9.50;99.90
18446;DHT22;9352;50.888;4.466;2023-03-29T04:20:04;9.40;99.90
18446;DHT22;9352;50.888;4.466;2023-03-29T04:22:37;9.40;99.90
18446;DHT22;9352;50.888;4.466;2023-03-29T04:25:05;9.40;99.90
18446;DHT22;9352;50.888;4.466;2023-03-29T04:27:32;9.40;99.90
18446;DHT22;9352;50.888;4.466;2023-03-29T04:30:01;9.50;99.90
18446;DHT22;9352;50.888;4.466;2023-03-29T04:32:27;9.50;99.90
18446;DHT22;9352;50.888;4.466;2023-03-29T04:34:54;9.50;99.90
18446;DHT22;9352;50.888;4.466;2023-03-29T04:37:21;9.50;99.90
18446;DHT22;9352;50.888;4.466;2023-03-29T04:39:48;9.50;99.90
18446;DHT22;9352;50.888;4.466;2023-03-29T04:42:16;9.50;99.90
18446;DHT22;9352;50.888;4.466;2023-03-29T04:44:43;9.60;99.90
18446;DHT22;9352;50.888;4.466;2023-03-29T04:47:12;9.60;99.90
18446;DHT22;9352;50.888;4.466;2023-03-29T04:49:39;9.70;99.90
18446;DHT22;9352;50.888;4.466;2023-03-29T04:52:07;9.70;99.90
18446;DHT22;9352;50.888;4.466;2023-03-29T04:54:34;9.70;99.90
18446;DHT22;9352;50.888;4.466;2023-03-29T04:57:02;9.80;99.90
18446;DHT22;9352;50.888;4.466;2023-03-29T04:59:29;9.80;99.90
18446;DHT22;9352;50.888;4.466;2023-03-29T05:01:56;9.80;99.90
18446;DHT22;9352;50.888;4.466;2023-03-29T05:04:25;9.90;99.90
18446;DHT22;9352;50.888;4.466;2023-03-29T05:06:53;9.90;99.90
18446;DHT22;9352;50.888;4.466;2023-03-29T05:09:20;9.90;99.90
18446;DHT22;9352;50.888;4.466;2023-03-29T05:11:47;9.90;99.90
18446;DHT22;9352;50.888;4.466;2023-03-29T05:14:14;9.90;99.90
18446;DHT22;9352;50.888;4.466;2023-03-29T05:16:41;9.90;99.90
18446;DHT22;9352;50.888;4.466;2023-03-29T05:19:09;10.00;99.90
18446;DHT22;9352;50.888;4.466;2023-03-29T05:21:37;10.00;99.90
18446;DHT22;9352;50.888;4.466;2023-03-29T05:24:04;10.00;99.90
18446;DHT22;9352;50.888;4.466;2023-03-29T05:26:31;10.00;99.90
18446;DHT22;9352;50.888;4.466;2023-03-29T05:28:58;10.00;99.90
18446;DHT22;9352;50.888;4.466;2023-03-29T05:31:25;10.00;99.90
18446;DHT22;9352;50.888;4.466;2023-03-29T05:33:52;10.00;99.90
18446;DHT22;9352;50.888;4.466;2023-03-29T05:36:20;10.10;99.90
18446;DHT22;9352;50.888;4.466;2023-03-29T05:38:49;10.10;99.90
18446;DHT22;9352;50.888;4.466;2023-03-29T05:41:16;10.10;99.90
18446;DHT22;9352;50.888;4.466;2023-03-29T05:43:43;10.10;99.90
18446;DHT22;9352;50.888;4.466;2023-03-29T05:46:10;10.10;99.90
18446;DHT22;9352;50.888;4.466;2023-03-29T05:48:37;10.20;99.90
18446;DHT22;9352;50.888;4.466;2023-03-29T05:51:04;10.20;99.90
18446;DHT22;9352;50.888;4.466;2023-03-29T05:53:31;10.20;99.90
18446;DHT22;9352;50.888;4.466;2023-03-29T05:56:00;10.20;99.90
18446;DHT22;9352;50.888;4.466;2023-03-29T05:58:26;10.20;99.90
18446;DHT22;9352;50.888;4.466;2023-03-29T06:00:55;10.10;99.90
18446;DHT22;9352;50.888;4.466;2023-03-29T06:03:23;10.20;99.90
18446;DHT22;9352;50.888;4.466;2023-03-29T06:05:56;10.20;99.90
18446;DHT22;9352;50.888;4.466;2023-03-29T06:08:24;10.20;99.90
18446;DHT22;9352;50.888;4.466;2023-03-29T06:10:56;10.30;99.90
18446;DHT22;9352;50.888;4.466;2023-03-29T06:13:25;10.30;99.90
18446;DHT22;9352;50.888;4.466;2023-03-29T06:15:52;10.30;99.90
18446;DHT22;9352;50.888;4.466;2023-03-29T06:18:21;10.30;99.90
18446;DHT22;9352;50.888;4.466;2023-03-29T06:20:49;10.40;99.90
18446;DHT22;9352;50.888;4.466;2023-03-29T06:23:17;10.40;99.90
18446;DHT22;9352;50.888;4.466;2023-03-29T06:25:44;10.40;99.90
18446;DHT22;9352;50.888;4.466;2023-03-29T06:28:12;10.40;99.90
18446;DHT22;9352;50.888;4.466;2023-03-29T06:30:40;10.40;99.90
18446;DHT22;9352;50.888;4.466;2023-03-29T06:33:08;10.50;99.90
18446;DHT22;9352;50.888;4.466;2023-03-29T06:35:35;10.50;99.90
18446;DHT22;9352;50.888;4.466;2023-03-29T06:38:03;10.50;99.90
18446;DHT22;9352;50.888;4.466;2023-03-29T06:40:30;10.50;99.90
18446;DHT22;9352;50.888;4.466;2023-03-29T06:42:57;10.60;99.90
18446;DHT22;9352;50.888;4.466;2023-03-29T06:45:25;10.70;99.90
18446;DHT22;9352;50.888;4.466;2023-03-29T06:47:54;10.70;99.90
18446;DHT22;9352;50.888;4.466;2023-03-29T06:50:21;10.80;99.90
18446;DHT22;9352;50.888;4.466;2023-03-29T06:52:48;10.80;99.90
18446;DHT22;9352;50.888;4.466;2023-03-29T06:55:16;10.90;99.90
18446;DHT22;9352;50.888;4.466;2023-03-29T06:57:43;10.90;99.90
18446;DHT22;9352;50.888;4.466;2023-03-29T07:00:11;10.90;99.90
18446;DHT22;9352;50.888;4.466;2023-03-29T07:02:43;11.00;99.90
18446;DHT22;9352;50.888;4.466;2023-03-29T07:05:13;11.00;99.90
18446;DHT22;9352;50.888;4.466;2023-03-29T07:07:42;11.00;99.90
18446;DHT22;9352;50.888;4.466;2023-03-29T07:10:22;11.10;99.90
18446;DHT22;9352;50.888;4.466;2023-03-29T07:12:50;11.10;99.90
18446;DHT22;9352;50.888;4.466;2023-03-29T07:15:18;11.00;99.90
18446;DHT22;9352;50.888;4.466;2023-03-29T07:17:46;11.10;99.90
18446;DHT22;9352;50.888;4.466;2023-03-29T07:20:14;11.10;99.90
18446;DHT22;9352;50.888;4.466;2023-03-29T07:22:42;11.20;99.90
18446;DHT22;9352;50.888;4.466;2023-03-29T07:25:10;11.30;99.90
18446;DHT22;9352;50.888;4.466;2023-03-29T07:27:38;11.40;99.90
18446;DHT22;9352;50.888;4.466;2023-03-29T07:30:08;11.40;99.90
18446;DHT22;9352;50.888;4.466;2023-03-29T07:32:36;11.50;99.90
18446;DHT22;9352;50.888;4.466;2023-03-29T07:35:05;11.50;99.90
18446;DHT22;9352;50.888;4.466;2023-03-29T07:37:35;11.50;99.90
18446;DHT22;9352;50.888;4.466;2023-03-29T07:40:03;11.60;99.90
18446;DHT22;9352;50.888;4.466;2023-03-29T07:42:37;11.60;99.90
18446;DHT22;9352;50.888;4.466;2023-03-29T07:45:05;11.70;99.90
18446;DHT22;9352;50.888;4.466;2023-03-29T07:47:33;11.80;99.90
18446;DHT22;9352;50.888;4.466;2023-03-29T07:50:00;11.80;99.90
18446;DHT22;9352;50.888;4.466;2023-03-29T07:52:27;11.80;99.90
18446;DHT22;9352;50.888;4.466;2023-03-29T07:54:56;11.70;99.90
18446;DHT22;9352;50.888;4.466;2023-03-29T07:57:23;11.80;99.90
18446;DHT22;9352;50.888;4.466;2023-03-29T07:59:51;11.80;99.90
18446;DHT22;9352;50.888;4.466;2023-03-29T08:02:18;11.70;99.90
18446;DHT22;9352;50.888;4.466;2023-03-29T08:04:45;11.70;99.90
18446;DHT22;9352;50.888;4.466;2023-03-29T08:07:12;11.80;99.90
18446;DHT22;9352;50.888;4.466;2023-03-29T08:09:39;11.80;99.90
18446;DHT22;9352;50.888;4.466;2023-03-29T08:12:09;11.90;99.90
18446;DHT22;9352;50.888;4.466;2023-03-29T08:14:36;11.90;99.90
18446;DHT22;9352;50.888;4.466;2023-03-29T08:17:03;11.90;99.90
18446;DHT22;9352;50.888;4.466;2023-03-29T08:19:30;11.90;99.90
18446;DHT22;9352;50.888;4.466;2023-03-29T08:21:57;12.00;99.90
18446;DHT22;9352;50.888;4.466;2023-03-29T08:24:24;12.00;99.90
18446;DHT22;9352;50.888;4.466;2023-03-29T08:26:51;12.10;99.90
18446;DHT22;9352;50.888;4.466;2023-03-29T08:29:19;12.20;99.90
18446;DHT22;9352;50.888;4.466;2023-03-29T08:31:46;12.40;99.90
18446;DHT22;9352;50.888;4.466;2023-03-29T08:34:13;12.70;99.90
18446;DHT22;9352;50.888;4.466;2023-03-29T08:36:40;13.00;99.90
18446;DHT22;9352;50.888;4.466;2023-03-29T08:39:07;13.20;99.90
18446;DHT22;9352;50.888;4.466;2023-03-29T08:41:40;13.20;99.90
18446;DHT22;9352;50.888;4.466;2023-03-29T08:44:22;13.20;99.90
18446;DHT22;9352;50.888;4.466;2023-03-29T08:46:57;13.20;99.90
18446;DHT22;9352;50.888;4.466;2023-03-29T08:49:27;13.20;99.90
18446;DHT22;9352;50.888;4.466;2023-03-29T08:51:56;13.20;99.90
18446;DHT22;9352;50.888;4.466;2023-03-29T08:54:28;13.40;99.90
18446;DHT22;9352;50.888;4.466;2023-03-29T08:57:03;13.40;99.90
18446;DHT22;9352;50.888;4.466;2023-03-29T08:59:34;13.50;99.90
18446;DHT22;9352;50.888;4.466;2023-03-29T09:02:03;13.40;99.90
18446;DHT22;9352;50.888;4.466;2023-03-29T09:04:39;13.50;99.90
18446;DHT22;9352;50.888;4.466;2023-03-29T09:07:08;13.60;99.90
18446;DHT22;9352;50.888;4.466;2023-03-29T09:09:35;13.80;99.90
18446;DHT22;9352;50.888;4.466;2023-03-29T09:12:09;13.90;99.90
18446;DHT22;9352;50.888;4.466;2023-03-29T09:14:50;14.00;99.90
18446;DHT22;9352;50.888;4.466;2023-03-29T09:17:29;14.20;99.90
18446;DHT22;9352;50.888;4.466;2023-03-29T09:20:07;14.30;99.90
18446;DHT22;9352;50.888;4.466;2023-03-29T09:22:41;14.30;99.90
18446;DHT22;9352;50.888;4.466;2023-03-29T09:25:16;14.30;99.90
18446;DHT22;9352;50.888;4.466;2023-03-29T09:27:48;14.20;99.90
18446;DHT22;9352;50.888;4.466;2023-03-29T09:30:26;14.10;99.90
18446;DHT22;9352;50.888;4.466;2023-03-29T09:32:58;14.10;99.90
18446;DHT22;9352;50.888;4.466;2023-03-29T09:35:30;14.00;99.90
18446;DHT22;9352;50.888;4.466;2023-03-29T09:37:57;14.10;99.90
18446;DHT22;9352;50.888;4.466;2023-03-29T09:40:26;14.20;99.90
18446;DHT22;9352;50.888;4.466;2023-03-29T09:42:56;14.70;99.90
18446;DHT22;9352;50.888;4.466;2023-03-29T09:45:25;14.90;99.90
18446;DHT22;9352;50.888;4.466;2023-03-29T09:47:55;14.80;99.90
18446;DHT22;9352;50.888;4.466;2023-03-29T09:50:27;14.80;99.90
18446;DHT22;9352;50.888;4.466;2023-03-29T09:52:56;14.90;99.90
18446;DHT22;9352;50.888;4.466;2023-03-29T09:55:26;14.90;99.90
18446;DHT22;9352;50.888;4.466;2023-03-29T09:57:55;15.30;99.90
18446;DHT22;9352;50.888;4.466;2023-03-29T10:00:25;15.40;99.90
18446;DHT22;9352;50.888;4.466;2023-03-29T10:02:52;15.60;99.90
18446;DHT22;9352;50.888;4.466;2023-03-29T10:05:20;16.10;99.90
18446;DHT22;9352;50.888;4.466;2023-03-29T10:07:52;16.20;99.90
18446;DHT22;9352;50.888;4.466;2023-03-29T10:10:21;16.30;99.90
18446;DHT22;9352;50.888;4.466;2023-03-29T10:12:51;16.40;99.90
18446;DHT22;9352;50.888;4.466;2023-03-29T10:15:18;16.30;99.90
18446;DHT22;9352;50.888;4.466;2023-03-29T10:17:47;16.40;99.90
18446;DHT22;9352;50.888;4.466;2023-03-29T10:20:16;16.20;99.90
18446;DHT22;9352;50.888;4.466;2023-03-29T10:22:48;16.30;99.90
18446;DHT22;9352;50.888;4.466;2023-03-29T10:25:25;16.50;99.90
18446;DHT22;9352;50.888;4.466;2023-03-29T10:27:56;16.70;99.90
18446;DHT22;9352;50.888;4.466;2023-03-29T10:30:28;16.90;99.90
18446;DHT22;9352;50.888;4.466;2023-03-29T10:32:59;16.90;99.90
18446;DHT22;9352;50.888;4.466;2023-03-29T10:35:29;16.80;99.90
18446;DHT22;9352;50.888;4.466;2023-03-29T10:37:58;17.10;99.90
18446;DHT22;9352;50.888;4.466;2023-03-29T10:40:27;17.60;99.90
18446;DHT22;9352;50.888;4.466;2023-03-29T10:42:57;18.10;99.90
18446;DHT22;9352;50.888;4.466;2023-03-29T10:45:27;18.40;99.90
18446;DHT22;9352;50.888;4.466;2023-03-29T10:47:56;18.00;99.90
18446;DHT22;9352;50.888;4.466;2023-03-29T10:50:25;17.60;99.90
18446;DHT22;9352;50.888;4.466;2023-03-29T10:52:57;17.30;99.90
18446;DHT22;9352;50.888;4.466;2023-03-29T10:55:30;17.30;99.90
18446;DHT22;9352;50.888;4.466;2023-03-29T10:58:05;17.40;99.90
18446;DHT22;9352;50.888;4.466;2023-03-29T11:00:41;17.30;99.90
18446;DHT22;9352;50.888;4.466;2023-03-29T11:03:36;17.20;99.90
18446;DHT22;9352;50.888;4.466;2023-03-29T11:06:13;17.10;99.90
18446;DHT22;9352;50.888;4.466;2023-03-29T11:08:53;16.90;99.90
18446;DHT22;9352;50.888;4.466;2023-03-29T11:11:36;17.00;99.90
18446;DHT22;9352;50.888;4.466;2023-03-29T11:14:15;17.00;99.90
18446;DHT22;9352;50.888;4.466;2023-03-29T11:16:55;17.00;99.90
18446;DHT22;9352;50.888;4.466;2023-03-29T11:19:40;17.20;99.90
18446;DHT22;9352;50.888;4.466;2023-03-29T11:22:13;17.20;99.90
18446;DHT22;9352;50.888;4.466;2023-03-29T11:24:59;17.20;99.90
18446;DHT22;9352;50.888;4.466;2023-03-29T11:27:37;17.20;99.90
18446;DHT22;9352;50.888;4.466;2023-03-29T11:30:07;17.20;99.90
18446;DHT22;9352;50.888;4.466;2023-03-29T11:32:46;17.30;99.90
18446;DHT22;9352;50.888;4.466;2023-03-29T11:35:28;17.50;99.90
18446;DHT22;9352;50.888;4.466;2023-03-29T11:38:04;17.40;99.90
18446;DHT22;9352;50.888;4.466;2023-03-29T11:40:43;17.40;99.90
18446;DHT22;9352;50.888;4.466;2023-03-29T11:43:17;17.40;99.90
18446;DHT22;9352;50.888;4.466;2023-03-29T11:45:49;17.50;99.90
18446;DHT22;9352;50.888;4.466;2023-03-29T11:48:20;17.70;99.90
18446;DHT22;9352;50.888;4.466;2023-03-29T11:50:52;17.70;99.90
18446;DHT22;9352;50.888;4.466;2023-03-29T11:53:24;17.60;99.90
18446;DHT22;9352;50.888;4.466;2023-03-29T11:55:54;17.90;99.90
18446;DHT22;9352;50.888;4.466;2023-03-29T11:58:27;18.30;99.90
18446;DHT22;9352;50.888;4.466;2023-03-29T12:00:58;18.60;99.90
18446;DHT22;9352;50.888;4.466;2023-03-29T12:03:33;18.80;99.90
18446;DHT22;9352;50.888;4.466;2023-03-29T12:06:06;18.90;99.90
18446;DHT22;9352;50.888;4.466;2023-03-29T12:08:40;19.10;99.90
18446;DHT22;9352;50.888;4.466;2023-03-29T12:11:15;19.00;99.90
18446;DHT22;9352;50.888;4.466;2023-03-29T12:13:49;18.90;99.90
18446;DHT22;9352;50.888;4.466;2023-03-29T12:16:24;18.70;99.90
18446;DHT22;9352;50.888;4.466;2023-03-29T12:18:55;18.70;99.90
18446;DHT22;9352;50.888;4.466;2023-03-29T12:21:24;18.60;99.90
18446;DHT22;9352;50.888;4.466;2023-03-29T12:23:54;18.70;99.90
18446;DHT22;9352;50.888;4.466;2023-03-29T12:29:34;18.80;99.90
18446;DHT22;9352;50.888;4.466;2023-03-29T12:32:14;18.90;99.90
18446;DHT22;9352;50.888;4.466;2023-03-29T12:35:01;19.00;99.90
18446;DHT22;9352;50.888;4.466;2023-03-29T12:37:40;19.00;99.90
18446;DHT22;9352;50.888;4.466;2023-03-29T12:40:14;19.00;99.90
18446;DHT22;9352;50.888;4.466;2023-03-29T12:42:46;19.20;99.90
18446;DHT22;9352;50.888;4.466;2023-03-29T12:45:17;19.30;99.90
18446;DHT22;9352;50.888;4.466;2023-03-29T12:47:46;19.40;99.90
18446;DHT22;9352;50.888;4.466;2023-03-29T12:50:22;19.40;99.90
18446;DHT22;9352;50.888;4.466;2023-03-29T12:53:00;19.20;99.90
18446;DHT22;9352;50.888;4.466;2023-03-29T12:55:32;19.00;99.90
18446;DHT22;9352;50.888;4.466;2023-03-29T12:58:02;18.80;99.90
18446;DHT22;9352;50.888;4.466;2023-03-29T13:00:42;18.80;99.90
18446;DHT22;9352;50.888;4.466;2023-03-29T13:03:27;18.70;99.90
18446;DHT22;9352;50.888;4.466;2023-03-29T13:05:59;18.60;99.90
18446;DHT22;9352;50.888;4.466;2023-03-29T13:08:32;18.70;99.90
18446;DHT22;9352;50.888;4.466;2023-03-29T13:11:01;18.90;99.90
18446;DHT22;9352;50.888;4.466;2023-03-29T13:13:31;19.20;99.90
18446;DHT22;9352;50.888;4.466;2023-03-29T13:16:13;19.40;99.90
18446;DHT22;9352;50.888;4.466;2023-03-29T13:18:53;19.60;99.90
18446;DHT22;9352;50.888;4.466;2023-03-29T13:21:30;19.70;99.90
18446;DHT22;9352;50.888;4.466;2023-03-29T13:24:02;19.80;99.90
18446;DHT22;9352;50.888;4.466;2023-03-29T13:26:44;19.80;99.90
18446;DHT22;9352;50.888;4.466;2023-03-29T13:29:28;19.70;99.90
18446;DHT22;9352;50.888;4.466;2023-03-29T13:32:04;19.50;99.90
18446;DHT22;9352;50.888;4.466;2023-03-29T13:34:43;19.50;99.90
18446;DHT22;9352;50.888;4.466;2023-03-29T13:37:23;19.50;99.90
18446;DHT22;9352;50.888;4.466;2023-03-29T13:39:54;19.80;99.90
18446;DHT22;9352;50.888;4.466;2023-03-29T13:42:37;20.00;99.90
18446;DHT22;9352;50.888;4.466;2023-03-29T13:45:13;20.20;99.90
18446;DHT22;9352;50.888;4.466;2023-03-29T13:47:42;20.60;99.90
18446;DHT22;9352;50.888;4.466;2023-03-29T13:50:15;20.60;99.90
18446;DHT22;9352;50.888;4.466;2023-03-29T13:52:48;20.30;99.90
18446;DHT22;9352;50.888;4.466;2023-03-29T13:55:20;20.40;99.90
18446;DHT22;9352;50.888;4.466;2023-03-29T13:57:52;20.50;99.90
18446;DHT22;9352;50.888;4.466;2023-03-29T14:00:24;20.70;99.90
18446;DHT22;9352;50.888;4.466;2023-03-29T14:02:53;20.90;99.90
18446;DHT22;9352;50.888;4.466;2023-03-29T14:05:24;20.90;99.90
18446;DHT22;9352;50.888;4.466;2023-03-29T14:07:53;20.70;99.90
18446;DHT22;9352;50.888;4.466;2023-03-29T14:10:23;20.50;99.90
18446;DHT22;9352;50.888;4.466;2023-03-29T14:12:53;20.30;99.90
18446;DHT22;9352;50.888;4.466;2023-03-29T14:15:23;20.20;99.90
18446;DHT22;9352;50.888;4.466;2023-03-29T14:17:55;20.20;99.90
18446;DHT22;9352;50.888;4.466;2023-03-29T14:20:23;20.00;99.90
18446;DHT22;9352;50.888;4.466;2023-03-29T14:22:50;20.00;99.90
18446;DHT22;9352;50.888;4.466;2023-03-29T14:25:18;19.90;99.90
18446;DHT22;9352;50.888;4.466;2023-03-29T14:27:47;19.80;99.90
18446;DHT22;9352;50.888;4.466;2023-03-29T14:30:25;19.80;99.90
18446;DHT22;9352;50.888;4.466;2023-03-29T14:32:53;19.90;99.90
18446;DHT22;9352;50.888;4.466;2023-03-29T14:35:28;20.00;99.90
18446;DHT22;9352;50.888;4.466;2023-03-29T14:37:57;20.10;99.90
18446;DHT22;9352;50.888;4.466;2023-03-29T14:40:24;20.30;99.90
18446;DHT22;9352;50.888;4.466;2023-03-29T14:42:52;20.40;99.90
18446;DHT22;9352;50.888;4.466;2023-03-29T14:45:22;20.30;99.90
18446;DHT22;9352;50.888;4.466;2023-03-29T14:47:49;20.00;99.90
18446;DHT22;9352;50.888;4.466;2023-03-29T14:50:20;19.70;99.90
18446;DHT22;9352;50.888;4.466;2023-03-29T14:52:49;19.50;99.90
18446;DHT22;9352;50.888;4.466;2023-03-29T14:55:17;19.30;99.90
18446;DHT22;9352;50.888;4.466;2023-03-29T14:57:49;19.20;99.90
18446;DHT22;9352;50.888;4.466;2023-03-29T15:00:29;19.00;99.90
18446;DHT22;9352;50.888;4.466;2023-03-29T15:02:57;18.90;99.90
18446;DHT22;9352;50.888;4.466;2023-03-29T15:05:31;18.70;99.90
18446;DHT22;9352;50.888;4.466;2023-03-29T15:08:00;18.70;99.90
18446;DHT22;9352;50.888;4.466;2023-03-29T15:10:30;18.70;99.90
18446;DHT22;9352;50.888;4.466;2023-03-29T15:13:00;18.70;99.90
18446;DHT22;9352;50.888;4.466;2023-03-29T15:15:30;18.70;99.90
18446;DHT22;9352;50.888;4.466;2023-03-29T15:17:59;18.60;99.90
18446;DHT22;9352;50.888;4.466;2023-03-29T15:20:28;18.60;99.90
18446;DHT22;9352;50.888;4.466;2023-03-29T15:23:00;18.70;99.90
18446;DHT22;9352;50.888;4.466;2023-03-29T15:25:32;18.80;99.90
18446;DHT22;9352;50.888;4.466;2023-03-29T15:27:59;19.10;99.90
18446;DHT22;9352;50.888;4.466;2023-03-29T15:30:36;19.60;99.90
18446;DHT22;9352;50.888;4.466;2023-03-29T15:33:08;19.80;99.90
18446;DHT22;9352;50.888;4.466;2023-03-29T15:35:38;20.20;99.90
18446;DHT22;9352;50.888;4.466;2023-03-29T15:38:05;20.30;99.90
18446;DHT22;9352;50.888;4.466;2023-03-29T15:40:33;20.30;99.90
18446;DHT22;9352;50.888;4.466;2023-03-29T15:42:59;20.20;99.90
18446;DHT22;9352;50.888;4.466;2023-03-29T15:45:26;20.20;99.90
18446;DHT22;9352;50.888;4.466;2023-03-29T15:47:55;20.20;99.90
18446;DHT22;9352;50.888;4.466;2023-03-29T15:50:22;20.10;99.90
18446;DHT22;9352;50.888;4.466;2023-03-29T15:52:49;19.90;99.90
18446;DHT22;9352;50.888;4.466;2023-03-29T15:55:16;19.70;99.90
18446;DHT22;9352;50.888;4.466;2023-03-29T15:57:45;19.60;99.90
18446;DHT22;9352;50.888;4.466;2023-03-29T16:00:15;19.40;99.90
18446;DHT22;9352;50.888;4.466;2023-03-29T16:02:43;19.20;99.90
18446;DHT22;9352;50.888;4.466;2023-03-29T16:05:12;19.20;99.90
18446;DHT22;9352;50.888;4.466;2023-03-29T16:07:39;19.00;99.90
18446;DHT22;9352;50.888;4.466;2023-03-29T16:10:07;18.80;99.90
18446;DHT22;9352;50.888;4.466;2023-03-29T16:12:34;18.70;99.90
18446;DHT22;9352;50.888;4.466;2023-03-29T16:15:09;18.60;99.90
18446;DHT22;9352;50.888;4.466;2023-03-29T16:17:37;18.50;99.90